createdAt,value
2023-05-18T00:01:20.238Z,11.65
2023-05-18T00:04:12.966Z,11.62
2023-05-18T00:06:59.008Z,11.59
2023-05-18T00:09:53.161Z,11.55
2023-05-18T00:12:45.998Z,11.53
2023-05-18T00:15:33.251Z,11.51
2023-05-18T00:18:26.779Z,11.49
2023-05-18T00:21:12.433Z,11.45
2023-05-18T00:24:05.087Z,11.42
2023-05-18T00:26:52.069Z,11.41
2023-05-18T00:29:44.804Z,11.39
2023-05-18T00:32:38.064Z,11.37
2023-05-18T00:35:29.908Z,11.37
2023-05-18T00:38:25.418Z,11.39
2023-05-18T00:41:18.075Z,11.40
2023-05-18T00:43:58.588Z,11.43
2023-05-18T00:46:45.439Z,11.44
2023-05-18T00:49:38.304Z,11.43
2023-05-18T00:52:33.039Z,11.42
2023-05-18T00:55:17.055Z,11.40
2023-05-18T00:58:09.729Z,11.38
2023-05-18T01:00:55.861Z,11.37
2023-05-18T01:03:40.466Z,11.36
2023-05-18T01:06:35.870Z,11.35
2023-05-18T01:09:24.437Z,11.34
2023-05-18T01:12:14.424Z,11.33
2023-05-18T01:15:14.020Z,11.30
2023-05-18T01:18:14.930Z,11.30
2023-05-18T01:21:13.801Z,11.28
2023-05-18T01:24:16.213Z,11.27
2023-05-18T01:27:11.916Z,11.27
2023-05-18T01:29:59.227Z,11.27
2023-05-18T01:32:47.244Z,11.27
2023-05-18T01:35:34.270Z,11.27
2023-05-18T01:38:21.659Z,11.27
2023-05-18T01:41:21.578Z,11.26
2023-05-18T01:44:19.155Z,11.26
2023-05-18T01:47:16.751Z,11.30
2023-05-18T01:50:04.583Z,11.34
2023-05-18T01:52:51.872Z,11.37
2023-05-18T01:55:42.075Z,11.39
2023-05-18T01:58:30.765Z,11.40
2023-05-18T02:01:20.406Z,11.42
2023-05-18T02:04:16.653Z,11.45
2023-05-18T02:06:55.459Z,11.47
2023-05-18T02:09:31.093Z,11.48
2023-05-18T02:12:16.880Z,11.48
2023-05-18T02:15:05.474Z,11.47
2023-05-18T02:17:58.590Z,11.45
2023-05-18T02:20:44.658Z,11.45
2023-05-18T02:23:37.510Z,11.43
2023-05-18T02:26:30.412Z,11.42
2023-05-18T02:29:23.135Z,11.40
2023-05-18T02:32:10.557Z,11.34
2023-05-18T02:35:03.764Z,11.29
2023-05-18T02:37:58.382Z,11.26
2023-05-18T02:40:38.673Z,11.21
2023-05-18T02:43:32.237Z,11.17
2023-05-18T02:46:25.222Z,11.09
2023-05-18T02:49:18.210Z,11.01
2023-05-18T02:52:10.412Z,10.93
2023-05-18T02:55:03.326Z,10.86
2023-05-18T02:58:00.031Z,10.79
2023-05-18T03:00:55.315Z,10.74
2023-05-18T03:03:48.072Z,10.69
2023-05-18T03:06:40.939Z,10.65
2023-05-18T03:09:27.104Z,10.63
2023-05-18T03:12:19.976Z,10.60
2023-05-18T03:15:16.486Z,10.58
2023-05-18T03:18:09.627Z,10.57
2023-05-18T03:21:04.127Z,10.55
2023-05-18T03:23:56.791Z,10.50
2023-05-18T03:26:54.613Z,10.47
2023-05-18T03:29:47.658Z,10.44
2023-05-18T03:32:41.845Z,10.40
2023-05-18T03:35:23.495Z,10.32
2023-05-18T03:38:07.733Z,10.23
2023-05-18T03:41:00.748Z,10.12
2023-05-18T03:43:53.572Z,10.04
2023-05-18T03:46:46.416Z,9.97
2023-05-18T03:49:39.909Z,9.89
2023-05-18T03:52:15.440Z,9.87
2023-05-18T03:55:09.106Z,9.86
2023-05-18T03:57:56.479Z,9.88
2023-05-18T04:00:49.851Z,9.90
2023-05-18T04:03:42.987Z,9.93
2023-05-18T04:06:37.404Z,9.98
2023-05-18T04:09:15.035Z,10.02
2023-05-18T04:11:58.929Z,10.07
2023-05-18T04:14:33.327Z,10.09
2023-05-18T04:17:08.598Z,10.10
2023-05-18T04:19:42.120Z,10.11
2023-05-18T04:22:18.881Z,10.12
2023-05-18T04:24:55.184Z,10.10
2023-05-18T04:27:30.359Z,10.06
2023-05-18T04:30:03.009Z,10.03
2023-05-18T04:32:38.659Z,9.98
2023-05-18T04:35:14.277Z,9.93
2023-05-18T04:37:47.367Z,9.89
2023-05-18T04:40:25.416Z,9.88
2023-05-18T04:43:01.433Z,9.84
2023-05-18T04:45:37.792Z,9.81
2023-05-18T04:48:20.404Z,9.78
2023-05-18T04:50:54.850Z,9.74
2023-05-18T04:53:30.267Z,9.73
2023-05-18T04:56:07.309Z,9.72
2023-05-18T04:58:41.664Z,9.71
2023-05-18T05:01:15.589Z,9.70
2023-05-18T05:03:58.249Z,9.68
2023-05-18T05:06:32.524Z,9.68
2023-05-18T05:09:14.997Z,9.70
2023-05-18T05:11:47.366Z,9.70
2023-05-18T05:14:22.220Z,9.73
2023-05-18T05:16:55.089Z,9.72
2023-05-18T05:19:30.836Z,9.68
2023-05-18T05:22:03.392Z,9.66
2023-05-18T05:24:36.265Z,9.68
2023-05-18T05:27:11.758Z,9.69
2023-05-18T05:29:45.320Z,9.76
2023-05-18T05:32:19.079Z,9.85
2023-05-18T05:34:54.937Z,9.92
2023-05-18T05:37:27.880Z,9.93
2023-05-18T05:40:00.610Z,9.94
2023-05-18T05:42:38.784Z,9.89
2023-05-18T05:45:12.735Z,9.84
2023-05-18T05:47:51.877Z,9.79
2023-05-18T05:50:27.898Z,9.77
2023-05-18T05:53:03.595Z,9.76
2023-05-18T05:55:41.998Z,9.75
2023-05-18T05:58:19.865Z,9.75
2023-05-18T06:01:10.446Z,9.70
2023-05-18T06:03:45.327Z,9.63
2023-05-18T06:06:18.646Z,9.59
2023-05-18T06:08:51.470Z,9.57
2023-05-18T06:11:25.598Z,9.57
2023-05-18T06:13:58.727Z,9.58
2023-05-18T06:16:31.716Z,9.54
2023-05-18T06:19:25.168Z,9.51
2023-05-18T06:22:18.255Z,9.52
2023-05-18T06:25:11.879Z,9.51
2023-05-18T06:28:04.466Z,9.51
2023-05-18T06:31:09.448Z,9.53
2023-05-18T06:34:06.990Z,9.52
2023-05-18T06:37:00.198Z,9.55
2023-05-18T06:39:53.287Z,9.60
2023-05-18T06:42:46.448Z,9.67
2023-05-18T06:45:42.478Z,9.73
2023-05-18T06:48:38.752Z,9.78
2023-05-18T06:51:32.001Z,9.76
2023-05-18T06:54:24.607Z,9.74
2023-05-18T06:57:18.473Z,9.71
2023-05-18T07:00:02.381Z,9.75
2023-05-18T07:02:55.377Z,9.82
2023-05-18T07:05:41.346Z,9.82
2023-05-18T07:08:37.080Z,9.74
2023-05-18T07:11:30.001Z,9.67
2023-05-18T07:14:22.891Z,9.68
2023-05-18T07:16:57.873Z,9.73
2023-05-18T07:19:51.148Z,9.73
2023-05-18T07:22:34.006Z,9.76
2023-05-18T07:25:28.794Z,9.82
2023-05-18T07:28:04.620Z,9.86
2023-05-18T07:30:37.892Z,9.89
2023-05-18T07:33:21.740Z,9.91
2023-05-18T07:35:54.267Z,9.97
2023-05-18T07:38:47.612Z,10.01
2023-05-18T07:41:40.221Z,10.04
2023-05-18T07:44:15.316Z,10.03
2023-05-18T07:46:48.200Z,10.03
2023-05-18T07:49:23.356Z,10.05
2023-05-18T07:51:57.370Z,10.04
2023-05-18T07:54:41.343Z,10.03
2023-05-18T07:57:14.314Z,10.08
2023-05-18T08:00:10.428Z,10.13
2023-05-18T08:02:46.333Z,10.13
2023-05-18T08:05:21.341Z,10.13
2023-05-18T08:08:15.596Z,10.21
2023-05-18T08:10:48.563Z,10.36
2023-05-18T08:13:41.610Z,10.50
2023-05-18T08:16:14.283Z,10.63
2023-05-18T08:18:57.846Z,10.74
2023-05-18T08:21:49.163Z,10.81
2023-05-18T08:24:42.263Z,10.80
2023-05-18T08:27:14.911Z,10.80
2023-05-18T08:29:58.671Z,11.05
2023-05-18T08:32:51.740Z,10.97
2023-05-18T08:35:36.969Z,10.92
2023-05-18T08:38:29.887Z,10.96
2023-05-18T08:41:14.081Z,11.01
2023-05-18T08:43:52.193Z,11.05
2023-05-18T08:46:26.474Z,11.07
2023-05-18T08:49:00.297Z,11.11
2023-05-18T08:51:37.236Z,11.17
2023-05-18T08:54:13.187Z,11.25
2023-05-18T08:56:47.726Z,11.29
2023-05-18T08:59:26.175Z,11.38
2023-05-18T09:01:59.565Z,11.49
2023-05-18T09:04:34.733Z,11.52
2023-05-18T09:07:13.587Z,11.58
2023-05-18T09:09:50.839Z,11.50
2023-05-18T09:12:24.819Z,11.31
2023-05-18T09:14:58.205Z,11.15
2023-05-18T09:17:30.845Z,11.07
2023-05-18T09:20:07.110Z,11.01
2023-05-18T09:22:40.713Z,10.97
2023-05-18T09:25:13.367Z,10.99
2023-05-18T09:27:46.779Z,11.04
2023-05-18T09:30:19.980Z,11.14
2023-05-18T09:32:56.736Z,11.25
2023-05-18T09:35:29.679Z,11.30
2023-05-18T09:38:06.961Z,11.42
2023-05-18T09:40:39.718Z,11.54
2023-05-18T09:43:14.007Z,11.57
2023-05-18T09:45:48.511Z,11.53
2023-05-18T09:48:24.802Z,11.49
2023-05-18T09:51:01.788Z,11.41
2023-05-18T09:53:37.477Z,11.35
2023-05-18T09:56:12.230Z,11.39
2023-05-18T09:58:45.062Z,11.53
2023-05-18T10:01:17.856Z,11.70
2023-05-18T10:03:50.856Z,11.76
2023-05-18T10:06:31.730Z,11.80
2023-05-18T10:09:16.664Z,11.92
2023-05-18T10:11:51.572Z,12.13
2023-05-18T10:14:33.758Z,12.33
2023-05-18T10:19:49.672Z,12.41
2023-05-18T10:22:28.091Z,12.43
2023-05-18T10:25:02.328Z,12.74
2023-05-18T10:27:37.853Z,13.81
2023-05-18T10:30:12.920Z,14.38
2023-05-18T10:32:46.905Z,14.74
2023-05-18T10:35:21.897Z,15.18
2023-05-18T10:37:56.610Z,15.55
2023-05-18T10:40:30.023Z,15.49
2023-05-18T10:43:05.206Z,15.36
2023-05-18T10:45:40.840Z,15.64
2023-05-18T10:48:15.235Z,15.75
2023-05-18T10:50:49.027Z,15.75
2023-05-18T10:53:23.280Z,15.74
2023-05-18T10:55:58.420Z,15.80
2023-05-18T10:58:32.312Z,15.68
2023-05-18T11:01:08.317Z,15.79
2023-05-18T11:03:42.480Z,15.92
2023-05-18T11:06:18.565Z,15.87
2023-05-18T11:08:52.582Z,16.03
2023-05-18T11:11:30.226Z,16.02
2023-05-18T11:14:05.828Z,16.14
2023-05-18T11:16:43.387Z,16.34
2023-05-18T11:19:16.320Z,16.27
2023-05-18T11:21:55.735Z,16.07
2023-05-18T11:24:37.901Z,16.06
2023-05-18T11:27:19.617Z,16.03
2023-05-18T11:30:07.765Z,16.20
2023-05-18T11:32:53.458Z,16.16
2023-05-18T11:35:27.283Z,16.26
2023-05-18T11:38:09.738Z,16.43
2023-05-18T11:40:49.663Z,16.62
2023-05-18T11:43:26.589Z,16.67
2023-05-18T11:46:00.422Z,16.42
2023-05-18T11:48:37.223Z,15.36
2023-05-18T11:51:11.979Z,14.27
2023-05-18T11:53:44.817Z,13.64
2023-05-18T11:56:18.359Z,14.02
2023-05-18T11:59:14.254Z,14.65
2023-05-18T12:01:47.313Z,15.10
2023-05-18T12:04:20.722Z,15.34
2023-05-18T12:06:55.107Z,15.41
2023-05-18T12:09:41.769Z,15.52
2023-05-18T12:12:17.312Z,15.55
2023-05-18T12:14:57.239Z,15.38
2023-05-18T12:17:43.244Z,15.30
2023-05-18T12:20:18.214Z,15.15
2023-05-18T12:22:53.965Z,15.61
2023-05-18T12:25:29.084Z,15.87
2023-05-18T12:28:02.405Z,16.04
2023-05-18T12:30:39.652Z,16.08
2023-05-18T12:33:15.220Z,16.25
2023-05-18T12:35:48.002Z,16.30
2023-05-18T12:38:22.019Z,16.39
2023-05-18T12:40:56.963Z,16.14
2023-05-18T12:43:34.440Z,15.22
2023-05-18T12:46:08.756Z,14.30
2023-05-18T12:48:57.134Z,13.76
2023-05-18T12:51:37.746Z,14.18
2023-05-18T12:54:11.249Z,14.42
2023-05-18T12:57:02.072Z,14.78
2023-05-18T12:59:35.135Z,14.89
2023-05-18T13:02:10.446Z,14.66
2023-05-18T13:04:43.096Z,14.45
2023-05-18T13:07:16.209Z,14.30
2023-05-18T13:09:50.084Z,14.58
2023-05-18T13:12:39.502Z,14.93
2023-05-18T13:15:20.954Z,15.45
2023-05-18T13:18:00.791Z,15.74
2023-05-18T13:20:37.195Z,15.88
2023-05-18T13:23:12.366Z,15.94
2023-05-18T13:25:46.638Z,15.88
2023-05-18T13:28:22.338Z,15.82
2023-05-18T13:30:56.353Z,15.93
2023-05-18T13:33:29.044Z,16.03
2023-05-18T13:36:04.484Z,16.06
2023-05-18T13:38:37.622Z,15.86
2023-05-18T13:41:15.047Z,15.80
2023-05-18T13:43:48.232Z,15.73
2023-05-18T13:46:23.363Z,15.56
2023-05-18T13:48:56.205Z,15.41
2023-05-18T13:51:30.633Z,15.17
2023-05-18T13:54:03.791Z,14.74
2023-05-18T13:56:36.874Z,14.46
2023-05-18T13:59:09.495Z,14.28
2023-05-18T14:01:42.546Z,14.24
2023-05-18T14:04:15.710Z,14.28
2023-05-18T14:06:48.452Z,14.24
2023-05-18T14:09:20.975Z,14.33
2023-05-18T14:11:53.910Z,14.31
2023-05-18T14:14:29.276Z,14.13
2023-05-18T14:17:02.932Z,13.85
2023-05-18T14:19:39.245Z,13.64
2023-05-18T14:22:11.966Z,13.43
2023-05-18T14:24:44.481Z,13.22
2023-05-18T14:27:17.219Z,12.97
2023-05-18T14:29:49.967Z,12.77
2023-05-18T14:32:22.446Z,12.65
2023-05-18T14:34:55.999Z,12.58
2023-05-18T14:37:28.782Z,12.52
2023-05-18T14:40:01.275Z,12.46
2023-05-18T14:42:34.095Z,12.40
2023-05-18T14:45:07.835Z,12.32
2023-05-18T14:47:40.262Z,12.27
2023-05-18T14:50:13.375Z,12.22
2023-05-18T14:52:45.920Z,12.28
2023-05-18T14:55:18.873Z,12.64
2023-05-18T14:57:51.446Z,13.00
2023-05-18T15:00:24.552Z,13.08
2023-05-18T15:02:57.379Z,12.96
2023-05-18T15:05:29.897Z,12.83
2023-05-18T15:08:02.389Z,12.71
2023-05-18T15:10:35.097Z,12.77
2023-05-18T15:13:19.188Z,13.08
2023-05-18T15:15:52.422Z,12.97
2023-05-18T15:18:25.157Z,12.81
2023-05-18T15:20:57.997Z,12.63
2023-05-18T15:23:30.606Z,12.47
2023-05-18T15:26:03.149Z,12.36
2023-05-18T15:28:35.806Z,12.31
2023-05-18T15:31:17.428Z,12.29
2023-05-18T15:33:50.176Z,12.27
2023-05-18T15:36:23.066Z,12.23
2023-05-18T15:39:16.192Z,12.13
2023-05-18T15:41:48.978Z,12.05
2023-05-18T15:44:32.591Z,12.06
2023-05-18T15:47:26.499Z,12.06
2023-05-18T15:50:10.846Z,12.05
2023-05-18T15:53:03.560Z,12.02
2023-05-18T15:55:59.009Z,12.42
2023-05-18T15:58:43.733Z,12.93
2023-05-18T16:01:37.099Z,12.87
2023-05-18T16:04:30.155Z,12.64
2023-05-18T16:07:23.051Z,12.42
2023-05-18T16:10:15.916Z,12.18
2023-05-18T16:13:04.298Z,11.99
2023-05-18T16:16:17.513Z,11.88
2023-05-18T16:18:52.471Z,11.73
2023-05-18T16:21:45.298Z,11.60
2023-05-18T16:24:38.265Z,11.74
2023-05-18T16:27:11.438Z,12.15
2023-05-18T16:30:04.633Z,12.65
2023-05-18T16:32:57.613Z,12.72
2023-05-18T16:35:41.293Z,12.51
2023-05-18T16:38:36.102Z,12.36
2023-05-18T16:41:12.508Z,12.25
2023-05-18T16:43:46.089Z,12.37
2023-05-18T16:46:22.376Z,12.64
2023-05-18T16:49:07.872Z,12.58
2023-05-18T16:52:02.252Z,12.37
2023-05-18T16:54:46.291Z,12.29
2023-05-18T16:57:22.304Z,12.81
2023-05-18T17:00:20.011Z,13.25
2023-05-18T17:03:13.598Z,13.27
2023-05-18T17:05:59.448Z,13.32
2023-05-18T17:09:06.470Z,13.50
2023-05-18T17:11:49.251Z,13.81
2023-05-18T17:14:42.179Z,14.19
2023-05-18T17:17:25.007Z,14.47
2023-05-18T17:20:17.777Z,14.59
2023-05-18T17:22:50.433Z,14.64
2023-05-18T17:25:23.328Z,14.56
2023-05-18T17:28:00.312Z,14.41
2023-05-18T17:30:43.111Z,14.70
2023-05-18T17:33:18.310Z,14.78
2023-05-18T17:35:52.378Z,14.93
2023-05-18T17:38:27.944Z,15.20
2023-05-18T17:41:22.275Z,15.63
2023-05-18T17:43:57.898Z,15.96
2023-05-18T17:46:52.011Z,16.18
2023-05-18T17:49:46.593Z,16.03
2023-05-18T17:52:32.400Z,15.80
2023-05-18T17:55:16.245Z,15.78
2023-05-18T17:58:08.933Z,15.85
2023-05-18T18:01:01.913Z,15.95
2023-05-18T18:03:55.329Z,16.02
2023-05-18T18:06:42.694Z,16.06
2023-05-18T18:09:25.312Z,16.06
2023-05-18T18:12:09.980Z,15.87
2023-05-18T18:14:50.464Z,15.62
2023-05-18T18:17:43.400Z,15.60
2023-05-18T18:20:21.243Z,15.79
2023-05-18T18:23:15.802Z,16.03
2023-05-18T18:26:08.866Z,16.21
2023-05-18T18:28:52.544Z,16.38
2023-05-18T18:31:35.988Z,16.24
2023-05-18T18:34:28.881Z,16.08
2023-05-18T18:37:22.053Z,16.10
2023-05-18T18:40:19.183Z,16.07
2023-05-18T18:43:12.099Z,16.00
2023-05-18T18:45:55.573Z,15.88
2023-05-18T18:48:49.681Z,15.74
2023-05-18T18:51:43.240Z,15.66
2023-05-18T18:54:37.659Z,15.50
2023-05-18T18:57:20.114Z,15.34
2023-05-18T19:00:14.712Z,14.99
2023-05-18T19:03:10.000Z,14.63
2023-05-18T19:05:45.788Z,14.23
2023-05-18T19:08:38.449Z,13.86
2023-05-18T19:11:31.353Z,13.65
2023-05-18T19:14:04.568Z,13.50
2023-05-18T19:16:41.293Z,13.49
2023-05-18T19:19:14.819Z,13.55
2023-05-18T19:21:49.962Z,13.43
2023-05-18T19:24:43.725Z,13.37
2023-05-18T19:27:16.737Z,13.32
2023-05-18T19:30:02.271Z,13.54
2023-05-18T19:32:35.914Z,13.50
2023-05-18T19:35:08.895Z,13.24
2023-05-18T19:37:41.927Z,13.00
2023-05-18T19:40:14.759Z,12.83
2023-05-18T19:43:01.732Z,12.68
2023-05-18T19:45:54.587Z,12.54
2023-05-18T19:48:38.288Z,12.44
2023-05-18T19:51:16.173Z,12.34
2023-05-18T19:53:48.606Z,12.26
2023-05-18T19:56:24.408Z,12.27
2023-05-18T19:59:06.904Z,12.59
2023-05-18T20:01:59.551Z,12.86
2023-05-18T20:04:53.878Z,12.75
2023-05-18T20:07:31.350Z,12.59
2023-05-18T20:10:04.084Z,12.48
2023-05-18T20:12:36.618Z,12.40
2023-05-18T20:15:11.819Z,12.30
2023-05-18T20:17:44.794Z,12.26
2023-05-18T20:20:17.608Z,12.21
2023-05-18T20:22:50.088Z,12.13
2023-05-18T20:25:22.815Z,12.00
2023-05-18T20:28:00.761Z,11.87
2023-05-18T20:30:33.687Z,11.78
2023-05-18T20:33:09.853Z,11.71
2023-05-18T20:35:45.744Z,11.63
2023-05-18T20:38:26.706Z,11.62
2023-05-18T20:40:59.629Z,11.56
2023-05-18T20:43:32.158Z,11.52
2023-05-18T20:46:06.797Z,11.49
2023-05-18T20:48:42.595Z,11.44
2023-05-18T20:51:18.778Z,11.40
2023-05-18T20:53:52.641Z,11.39
2023-05-18T20:56:29.714Z,11.38
2023-05-18T20:59:04.185Z,11.35
2023-05-18T21:01:39.466Z,11.30
2023-05-18T21:04:13.923Z,11.21
2023-05-18T21:06:50.317Z,11.11
2023-05-18T21:09:34.574Z,11.01
2023-05-18T21:12:12.836Z,10.93
2023-05-18T21:14:45.799Z,10.92
2023-05-18T21:17:21.878Z,10.88
2023-05-18T21:19:57.390Z,10.82
2023-05-18T21:22:33.487Z,10.77
2023-05-18T21:25:06.620Z,10.73
2023-05-18T21:27:41.859Z,10.71
2023-05-18T21:30:19.097Z,10.71
2023-05-18T21:32:54.645Z,10.69
2023-05-18T21:35:41.077Z,10.69
2023-05-18T21:38:16.248Z,10.70
2023-05-18T21:40:59.763Z,10.70
2023-05-18T21:43:37.458Z,10.70
2023-05-18T21:46:12.436Z,10.72
2023-05-18T21:48:55.233Z,10.74
2023-05-18T21:51:31.616Z,10.75
2023-05-18T21:54:04.744Z,10.79
2023-05-18T21:56:43.279Z,10.83
2023-05-18T21:59:26.349Z,10.89
2023-05-18T22:01:58.914Z,10.91
2023-05-18T22:04:32.074Z,10.95
2023-05-18T22:07:07.396Z,10.97
2023-05-18T22:09:53.370Z,11.00
2023-05-18T22:12:26.396Z,11.01
2023-05-18T22:14:59.353Z,11.01
2023-05-18T22:17:36.842Z,10.99
2023-05-18T22:20:13.060Z,10.94
2023-05-18T22:22:48.091Z,10.89
2023-05-18T22:25:25.028Z,10.83
2023-05-18T22:27:59.894Z,10.79
2023-05-18T22:30:35.603Z,10.75
2023-05-18T22:33:09.475Z,10.74
2023-05-18T22:35:42.274Z,10.75
2023-05-18T22:38:18.271Z,10.76
2023-05-18T22:40:54.192Z,10.75
2023-05-18T22:43:31.426Z,10.75
2023-05-18T22:46:04.005Z,10.75
2023-05-18T22:48:39.679Z,10.75
2023-05-18T22:51:15.837Z,10.74
2023-05-18T22:53:51.435Z,10.72
2023-05-18T22:56:27.561Z,10.72
2023-05-18T22:59:00.288Z,10.71
2023-05-18T23:01:32.794Z,10.71
2023-05-18T23:04:09.382Z,10.71
2023-05-18T23:06:44.785Z,10.70
2023-05-18T23:09:17.705Z,10.70
2023-05-18T23:12:02.157Z,10.67
2023-05-18T23:14:41.280Z,10.64
2023-05-18T23:17:19.081Z,10.61
2023-05-18T23:19:54.059Z,10.57
2023-05-18T23:22:26.930Z,10.55
2023-05-18T23:25:04.733Z,10.56
2023-05-18T23:27:47.052Z,10.55
2023-05-18T23:30:22.858Z,10.56
2023-05-18T23:32:59.677Z,10.54
2023-05-18T23:35:33.524Z,10.52
2023-05-18T23:38:08.759Z,10.51
2023-05-18T23:40:44.198Z,10.51
2023-05-18T23:43:17.634Z,10.52
2023-05-18T23:45:55.978Z,10.53
2023-05-18T23:48:29.979Z,10.53
2023-05-18T23:51:04.119Z,10.52
2023-05-18T23:53:40.238Z,10.57
2023-05-18T23:56:16.633Z,10.59
2023-05-18T23:58:57.660Z,10.61
